createdAt,value
2023-03-24T00:00:14.958Z,14.46
2023-03-24T00:03:02.909Z,14.44
2023-03-24T00:05:30.809Z,14.41
2023-03-24T00:08:02.164Z,14.35
2023-03-24T00:10:34.917Z,14.34
2023-03-24T00:13:02.815Z,14.27
2023-03-24T00:15:30.298Z,14.25
2023-03-24T00:17:58.570Z,14.24
2023-03-24T00:20:26.489Z,14.25
2023-03-24T00:22:58.810Z,14.23
2023-03-24T00:25:36.605Z,14.19
2023-03-24T00:28:05.943Z,14.15
2023-03-24T00:30:33.782Z,14.10
2023-03-24T00:33:02.151Z,14.04
2023-03-24T00:35:29.192Z,13.98
2023-03-24T00:37:56.371Z,13.98
2023-03-24T00:40:23.612Z,13.97
2023-03-24T00:42:51.203Z,13.90
2023-03-24T00:45:23.381Z,13.87
2023-03-24T00:47:54.651Z,13.83
2023-03-24T00:50:27.160Z,13.81
2023-03-24T00:52:56.126Z,13.75
2023-03-24T00:55:23.345Z,13.70
2023-03-24T00:57:51.122Z,13.66
2023-03-24T01:00:21.614Z,13.60
2023-03-24T01:02:53.980Z,13.51
2023-03-24T01:05:28.084Z,13.48
2023-03-24T01:08:03.160Z,13.46
2023-03-24T01:10:42.652Z,13.44
2023-03-24T01:13:10.464Z,13.49
2023-03-24T01:15:38.474Z,13.50
2023-03-24T01:18:06.558Z,13.51
2023-03-24T01:20:33.681Z,13.49
2023-03-24T01:23:02.790Z,13.55
2023-03-24T01:25:30.611Z,13.58
2023-03-24T01:27:58.415Z,13.59
2023-03-24T01:30:27.766Z,13.56
2023-03-24T01:32:55.932Z,13.48
2023-03-24T01:35:27.717Z,13.47
2023-03-24T01:37:56.875Z,13.44
2023-03-24T01:40:30.482Z,13.35
2023-03-24T01:42:58.953Z,13.29
2023-03-24T01:45:51.070Z,13.19
2023-03-24T01:48:26.923Z,13.13
2023-03-24T01:51:04.620Z,13.11
2023-03-24T01:53:34.444Z,13.05
2023-03-24T01:56:03.213Z,13.00
2023-03-24T01:58:34.471Z,12.90
2023-03-24T02:01:01.574Z,12.88
2023-03-24T02:03:34.158Z,12.86
2023-03-24T02:06:02.692Z,12.83
2023-03-24T02:08:52.438Z,12.77
2023-03-24T02:11:21.305Z,12.75
2023-03-24T02:13:48.573Z,12.66
2023-03-24T02:16:39.278Z,12.62
2023-03-24T02:19:38.394Z,12.58
2023-03-24T02:22:46.912Z,12.51
2023-03-24T02:25:32.882Z,12.50
2023-03-24T02:28:18.399Z,12.46
2023-03-24T02:30:57.751Z,12.48
2023-03-24T02:33:59.891Z,12.45
2023-03-24T02:36:55.528Z,12.42
2023-03-24T02:39:40.690Z,12.39
2023-03-24T02:42:22.970Z,12.39
2023-03-24T02:45:01.800Z,12.36
2023-03-24T02:47:34.396Z,12.35
2023-03-24T02:50:27.330Z,12.34
2023-03-24T02:53:19.358Z,12.36
2023-03-24T02:56:18.297Z,12.36
2023-03-24T02:59:44.041Z,12.33
2023-03-24T03:02:19.981Z,12.34
2023-03-24T03:04:54.113Z,12.27
2023-03-24T03:07:27.468Z,12.24
2023-03-24T03:10:25.662Z,12.18
2023-03-24T03:12:57.036Z,12.15
2023-03-24T03:15:30.673Z,12.13
2023-03-24T03:18:09.339Z,12.13
2023-03-24T03:20:50.698Z,12.12
2023-03-24T03:23:23.596Z,12.14
2023-03-24T03:25:56.168Z,12.16
2023-03-24T03:28:29.981Z,12.21
2023-03-24T03:31:01.827Z,12.24
2023-03-24T03:33:46.787Z,12.26
2023-03-24T03:36:36.277Z,12.30
2023-03-24T03:39:12.020Z,12.33
2023-03-24T03:41:40.471Z,12.35
2023-03-24T03:44:07.582Z,12.35
2023-03-24T03:46:36.466Z,12.37
2023-03-24T03:49:06.565Z,12.36
2023-03-24T03:51:34.971Z,12.36
2023-03-24T03:54:05.697Z,12.34
2023-03-24T03:56:36.006Z,12.33
2023-03-24T03:59:04.283Z,12.31
2023-03-24T04:01:37.380Z,12.27
2023-03-24T04:04:20.392Z,12.23
2023-03-24T04:06:59.840Z,12.18
2023-03-24T04:09:45.918Z,12.13
2023-03-24T04:12:28.907Z,12.05
2023-03-24T04:15:26.008Z,11.99
2023-03-24T04:18:15.804Z,11.92
2023-03-24T04:21:10.310Z,11.84
2023-03-24T04:23:50.592Z,11.79
2023-03-24T04:26:54.798Z,11.70
2023-03-24T04:29:31.626Z,11.62
2023-03-24T04:31:59.247Z,11.56
2023-03-24T04:34:36.217Z,11.49
2023-03-24T04:37:12.675Z,11.42
2023-03-24T04:39:45.631Z,11.39
2023-03-24T04:42:37.934Z,11.33
2023-03-24T04:45:07.723Z,11.33
2023-03-24T04:47:43.260Z,11.31
2023-03-24T04:50:11.827Z,11.31
2023-03-24T04:52:41.387Z,11.33
2023-03-24T04:55:43.857Z,11.34
2023-03-24T04:58:11.010Z,11.37
2023-03-24T05:00:38.235Z,11.40
2023-03-24T05:03:05.590Z,11.48
2023-03-24T05:05:33.139Z,11.53
2023-03-24T05:08:00.332Z,11.60
2023-03-24T05:10:27.521Z,11.73
2023-03-24T05:12:54.416Z,11.85
2023-03-24T05:15:21.776Z,11.95
2023-03-24T05:17:48.926Z,12.06
2023-03-24T05:20:16.568Z,12.17
2023-03-24T05:22:43.491Z,12.25
2023-03-24T05:25:10.989Z,12.37
2023-03-24T05:27:38.301Z,12.43
2023-03-24T05:30:06.746Z,12.52
2023-03-24T05:32:33.668Z,12.58
2023-03-24T05:35:01.252Z,12.63
2023-03-24T05:37:28.241Z,12.68
2023-03-24T05:39:56.083Z,12.72
2023-03-24T05:42:23.216Z,12.76
2023-03-24T05:44:50.495Z,12.80
2023-03-24T05:47:20.065Z,12.87
2023-03-24T05:49:47.346Z,12.90
2023-03-24T05:52:16.444Z,12.96
2023-03-24T05:54:43.728Z,13.01
2023-03-24T05:57:16.219Z,13.09
2023-03-24T05:59:43.443Z,13.17
2023-03-24T06:02:10.723Z,13.23
2023-03-24T06:04:38.320Z,13.26
2023-03-24T06:07:05.352Z,13.37
2023-03-24T06:09:37.595Z,13.44
2023-03-24T06:12:06.297Z,13.50
2023-03-24T06:14:33.968Z,13.58
2023-03-24T06:17:01.114Z,13.62
2023-03-24T06:19:30.942Z,13.66
2023-03-24T06:22:02.815Z,13.71
2023-03-24T06:24:30.715Z,13.77
2023-03-24T06:27:02.398Z,13.78
2023-03-24T06:29:31.246Z,13.81
2023-03-24T06:31:58.171Z,13.81
2023-03-24T06:34:25.504Z,13.87
2023-03-24T06:36:53.026Z,13.89
2023-03-24T06:39:20.277Z,13.92
2023-03-24T06:41:47.565Z,14.00
2023-03-24T06:44:14.740Z,14.07
2023-03-24T06:46:42.075Z,14.13
2023-03-24T06:49:09.324Z,14.19
2023-03-24T06:51:36.365Z,14.23
2023-03-24T06:54:03.801Z,14.29
2023-03-24T06:56:30.838Z,14.32
2023-03-24T06:58:58.039Z,14.35
2023-03-24T07:01:25.045Z,14.41
2023-03-24T07:03:52.349Z,14.43
2023-03-24T07:06:20.767Z,14.41
2023-03-24T07:08:47.963Z,14.42
2023-03-24T07:11:15.587Z,14.44
2023-03-24T07:13:42.784Z,14.48
2023-03-24T07:16:09.754Z,14.55
2023-03-24T07:18:37.122Z,14.56
2023-03-24T07:21:04.255Z,14.59
2023-03-24T07:23:32.693Z,14.60
2023-03-24T07:26:00.046Z,14.61
2023-03-24T07:28:27.324Z,14.66
2023-03-24T07:30:55.448Z,14.72
2023-03-24T07:33:25.040Z,14.83
2023-03-24T07:35:57.281Z,14.91
2023-03-24T07:38:25.999Z,15.03
2023-03-24T07:40:53.118Z,15.13
2023-03-24T07:43:20.425Z,15.21
2023-03-24T07:45:47.634Z,15.25
2023-03-24T07:48:15.531Z,15.30
2023-03-24T07:50:42.841Z,15.38
2023-03-24T07:53:10.066Z,15.49
2023-03-24T07:55:40.130Z,15.61
2023-03-24T07:58:07.629Z,15.68
2023-03-24T08:00:34.671Z,15.75
2023-03-24T08:03:02.168Z,15.92
2023-03-24T08:05:30.797Z,16.02
2023-03-24T08:07:58.618Z,16.09
2023-03-24T08:10:28.569Z,16.08
2023-03-24T08:12:56.889Z,16.08
2023-03-24T08:15:24.612Z,16.07
2023-03-24T08:17:52.000Z,16.03
2023-03-24T08:20:21.409Z,16.05
2023-03-24T08:22:50.066Z,16.11
2023-03-24T08:25:19.033Z,16.17
2023-03-24T08:27:47.302Z,16.20
2023-03-24T08:30:26.497Z,16.26
2023-03-24T08:32:59.515Z,16.35
2023-03-24T08:35:29.524Z,16.42
2023-03-24T08:37:56.873Z,16.57
2023-03-24T08:40:24.457Z,16.73
2023-03-24T08:42:54.983Z,16.88
2023-03-24T08:45:24.527Z,16.98
2023-03-24T08:47:52.646Z,16.98
2023-03-24T08:50:23.923Z,16.98
2023-03-24T08:52:51.182Z,17.07
2023-03-24T08:55:19.782Z,17.15
2023-03-24T08:57:47.833Z,17.27
2023-03-24T09:00:16.712Z,17.47
2023-03-24T09:02:54.029Z,17.58
2023-03-24T09:05:36.546Z,17.58
2023-03-24T09:08:08.536Z,17.55
2023-03-24T09:10:35.781Z,17.34
2023-03-24T09:13:04.487Z,17.34
2023-03-24T09:15:31.783Z,17.43
2023-03-24T09:17:59.250Z,17.59
2023-03-24T09:20:26.506Z,17.88
2023-03-24T09:22:53.707Z,18.21
2023-03-24T09:25:21.604Z,18.33
2023-03-24T09:27:49.136Z,18.48
2023-03-24T09:30:17.715Z,18.68
2023-03-24T09:32:46.228Z,18.64
2023-03-24T09:35:13.747Z,18.34
2023-03-24T09:37:43.031Z,18.35
2023-03-24T09:40:20.577Z,18.40
2023-03-24T09:43:11.135Z,18.31
2023-03-24T09:46:02.216Z,18.24
2023-03-24T09:48:39.506Z,18.29
2023-03-24T09:51:21.804Z,18.30
2023-03-24T09:53:54.817Z,18.35
2023-03-24T09:56:23.652Z,18.38
2023-03-24T09:58:59.348Z,18.24
2023-03-24T10:01:27.200Z,18.11
2023-03-24T10:03:58.988Z,18.23
2023-03-24T10:06:31.051Z,18.14
2023-03-24T10:09:16.248Z,18.16
2023-03-24T10:12:02.901Z,18.45
2023-03-24T10:14:51.754Z,18.64
2023-03-24T10:17:33.035Z,18.85
2023-03-24T10:20:30.921Z,19.19
2023-03-24T10:23:04.445Z,19.46
2023-03-24T10:25:50.463Z,19.46
2023-03-24T10:28:20.945Z,19.47
2023-03-24T10:30:51.518Z,19.85
2023-03-24T10:33:18.472Z,20.14
2023-03-24T10:35:57.136Z,20.35
2023-03-24T10:38:24.426Z,20.81
2023-03-24T10:40:54.344Z,20.93
2023-03-24T10:43:23.297Z,20.76
2023-03-24T10:45:53.697Z,20.79
2023-03-24T10:48:36.043Z,20.72
2023-03-24T10:51:03.657Z,20.96
2023-03-24T10:53:30.636Z,20.82
2023-03-24T10:55:58.109Z,20.45
2023-03-24T10:58:37.608Z,20.07
2023-03-24T11:01:21.438Z,19.63
2023-03-24T11:03:49.965Z,19.23
2023-03-24T11:06:19.648Z,19.02
2023-03-24T11:08:46.790Z,18.92
2023-03-24T11:11:35.034Z,18.79
2023-03-24T11:14:03.267Z,18.57
2023-03-24T11:16:35.990Z,18.46
2023-03-24T11:19:18.645Z,18.37
2023-03-24T11:21:48.177Z,18.31
2023-03-24T11:24:20.259Z,18.30
2023-03-24T11:27:02.167Z,18.28
2023-03-24T11:29:32.807Z,18.39
2023-03-24T11:32:11.265Z,18.60
2023-03-24T11:34:44.762Z,18.75
2023-03-24T11:37:20.038Z,18.75
2023-03-24T11:40:15.465Z,18.70
2023-03-24T11:42:52.264Z,18.76
2023-03-24T11:45:28.638Z,18.82
2023-03-24T11:47:58.577Z,19.07
2023-03-24T11:50:38.824Z,19.55
2023-03-24T11:53:21.470Z,19.76
2023-03-24T11:55:59.659Z,19.84
2023-03-24T11:58:50.465Z,19.85
2023-03-24T12:01:25.626Z,20.03
2023-03-24T12:04:23.216Z,20.06
2023-03-24T12:07:07.622Z,20.15
2023-03-24T12:09:53.386Z,20.16
2023-03-24T12:12:36.300Z,20.05
2023-03-24T12:15:26.652Z,20.13
2023-03-24T12:18:16.470Z,20.12
2023-03-24T12:21:05.182Z,20.09
2023-03-24T12:23:59.345Z,20.27
2023-03-24T12:26:34.613Z,20.53
2023-03-24T12:29:15.508Z,20.63
2023-03-24T12:32:16.567Z,20.26
2023-03-24T12:35:17.202Z,20.11
2023-03-24T12:38:06.155Z,19.71
2023-03-24T12:40:56.113Z,19.26
2023-03-24T12:44:22.038Z,18.90
2023-03-24T12:47:03.065Z,18.63
2023-03-24T12:50:02.322Z,18.44
2023-03-24T12:53:23.159Z,18.32
2023-03-24T12:55:59.421Z,18.24
2023-03-24T12:58:58.054Z,18.23
2023-03-24T13:01:50.298Z,18.24
2023-03-24T13:04:32.564Z,18.18
2023-03-24T13:07:11.588Z,18.11
2023-03-24T13:10:06.817Z,18.09
2023-03-24T13:12:54.186Z,18.00
2023-03-24T13:15:27.583Z,17.96
2023-03-24T13:18:09.823Z,17.90
2023-03-24T13:20:46.738Z,17.82
2023-03-24T13:23:23.152Z,17.75
2023-03-24T13:25:56.358Z,17.75
2023-03-24T13:28:31.329Z,17.72
2023-03-24T13:31:02.695Z,17.68
2023-03-24T13:33:32.376Z,17.70
2023-03-24T13:36:17.418Z,17.69
2023-03-24T13:38:53.146Z,17.65
2023-03-24T13:41:29.058Z,17.65
2023-03-24T13:44:02.366Z,17.65
2023-03-24T13:46:29.706Z,17.67
2023-03-24T13:48:58.750Z,17.65
2023-03-24T13:51:33.046Z,17.69
2023-03-24T13:54:22.617Z,17.71
2023-03-24T13:57:00.652Z,17.74
2023-03-24T13:59:32.144Z,17.77
2023-03-24T14:02:17.757Z,17.82
2023-03-24T14:04:47.659Z,17.84
2023-03-24T14:07:32.609Z,17.85
2023-03-24T14:10:03.175Z,17.92
2023-03-24T14:12:32.861Z,18.00
2023-03-24T14:15:15.073Z,18.04
2023-03-24T14:17:53.768Z,17.96
2023-03-24T14:20:38.568Z,17.93
2023-03-24T14:23:05.753Z,17.92
2023-03-24T14:25:33.963Z,17.88
2023-03-24T14:28:21.283Z,17.83
2023-03-24T14:31:17.706Z,17.80
2023-03-24T14:33:54.162Z,17.78
2023-03-24T14:36:35.254Z,17.76
2023-03-24T14:39:14.537Z,17.75
2023-03-24T14:41:44.351Z,17.72
2023-03-24T14:44:11.617Z,17.73
2023-03-24T14:46:39.865Z,17.72
2023-03-24T14:49:29.364Z,17.70
2023-03-24T14:52:12.913Z,17.74
2023-03-24T14:55:02.260Z,17.71
2023-03-24T14:57:34.473Z,17.66
2023-03-24T15:00:22.632Z,17.60
2023-03-24T15:02:52.718Z,17.59
2023-03-24T15:05:31.868Z,17.50
2023-03-24T15:08:33.145Z,17.43
2023-03-24T15:11:04.613Z,17.38
2023-03-24T15:13:42.702Z,17.32
2023-03-24T15:16:12.758Z,17.32
2023-03-24T15:21:41.244Z,17.29
2023-03-24T15:24:23.747Z,17.20
2023-03-24T15:26:54.689Z,17.17
2023-03-24T15:29:22.364Z,17.15
2023-03-24T15:31:50.441Z,17.13
2023-03-24T15:34:40.977Z,17.09
2023-03-24T15:37:32.536Z,17.04
2023-03-24T15:40:14.766Z,17.04
2023-03-24T15:42:46.078Z,17.01
2023-03-24T15:45:28.322Z,16.99
2023-03-24T15:47:56.244Z,16.99
2023-03-24T15:50:41.551Z,16.99
2023-03-24T15:53:14.377Z,17.00
2023-03-24T15:55:43.543Z,17.06
2023-03-24T15:58:28.569Z,17.02
2023-03-24T16:01:00.080Z,16.97
2023-03-24T16:03:27.830Z,16.94
2023-03-24T16:05:56.880Z,16.92
2023-03-24T16:08:39.320Z,16.88
2023-03-24T16:11:11.963Z,16.88
2023-03-24T16:13:44.970Z,16.83
2023-03-24T16:16:15.165Z,16.86
2023-03-24T16:18:44.975Z,16.85
2023-03-24T16:21:17.179Z,16.87
2023-03-24T16:23:45.478Z,16.87
2023-03-24T16:26:14.810Z,16.81
2023-03-24T16:28:41.818Z,16.76
2023-03-24T16:31:35.677Z,16.75
2023-03-24T16:34:02.588Z,16.75
2023-03-24T16:36:30.270Z,16.72
2023-03-24T16:38:59.446Z,16.75
2023-03-24T16:41:26.751Z,16.77
2023-03-24T16:43:54.178Z,16.74
2023-03-24T16:46:31.445Z,16.73
2023-03-24T16:48:58.892Z,16.76
2023-03-24T16:51:27.249Z,16.77
2023-03-24T16:53:54.115Z,16.77
2023-03-24T16:56:22.898Z,16.73
2023-03-24T16:58:53.295Z,16.72
2023-03-24T17:01:35.819Z,16.73
2023-03-24T17:04:10.371Z,16.71
2023-03-24T17:06:39.922Z,16.72
2023-03-24T17:09:08.289Z,16.75
2023-03-24T17:11:48.840Z,16.73
2023-03-24T17:14:15.940Z,16.76
2023-03-24T17:16:45.264Z,16.76
2023-03-24T17:19:17.411Z,16.78
2023-03-24T17:21:50.332Z,16.76
2023-03-24T17:24:17.789Z,16.77
2023-03-24T17:26:44.976Z,16.73
2023-03-24T17:29:13.659Z,16.69
2023-03-24T17:31:43.169Z,16.71
2023-03-24T17:36:44.658Z,16.65
2023-03-24T17:39:16.760Z,16.60
2023-03-24T17:41:44.377Z,16.59
2023-03-24T17:44:11.328Z,16.59
2023-03-24T17:46:38.700Z,16.60
2023-03-24T17:49:05.768Z,16.56
2023-03-24T17:51:33.219Z,16.53
2023-03-24T17:54:00.821Z,16.53
2023-03-24T17:56:28.013Z,16.52
2023-03-24T17:58:56.424Z,16.52
2023-03-24T18:01:23.847Z,16.48
2023-03-24T18:03:50.882Z,16.48
2023-03-24T18:06:18.246Z,16.46
2023-03-24T18:08:45.330Z,16.43
2023-03-24T18:11:14.851Z,16.38
2023-03-24T18:13:42.558Z,16.32
2023-03-24T18:16:20.842Z,16.30
2023-03-24T18:18:49.285Z,16.24
2023-03-24T18:21:16.533Z,16.24
2023-03-24T18:23:44.015Z,16.24
2023-03-24T18:26:11.286Z,16.21
2023-03-24T18:28:39.119Z,16.19
2023-03-24T18:31:12.848Z,16.17
2023-03-24T18:33:42.798Z,16.14
2023-03-24T18:36:10.630Z,16.14
2023-03-24T18:38:37.727Z,16.11
2023-03-24T18:41:07.471Z,16.05
2023-03-24T18:43:37.847Z,16.03
2023-03-24T18:46:09.498Z,16.01
2023-03-24T18:48:41.929Z,15.99
2023-03-24T18:51:10.304Z,15.96
2023-03-24T18:53:37.535Z,15.98
2023-03-24T18:56:06.081Z,15.96
2023-03-24T18:58:33.857Z,15.96
2023-03-24T19:01:07.066Z,15.94
2023-03-24T19:03:35.838Z,15.93
2023-03-24T19:06:07.044Z,15.87
2023-03-24T19:08:38.004Z,15.80
2023-03-24T19:11:05.731Z,15.78
2023-03-24T19:13:33.095Z,15.75
2023-03-24T19:16:00.460Z,15.73
2023-03-24T19:18:27.433Z,15.70
2023-03-24T19:20:57.359Z,15.70
2023-03-24T19:23:25.779Z,15.71
2023-03-24T19:25:56.263Z,15.69
2023-03-24T19:28:25.039Z,15.64
2023-03-24T19:30:53.425Z,15.62
2023-03-24T19:33:20.590Z,15.54
2023-03-24T19:35:48.779Z,15.51
2023-03-24T19:38:17.152Z,15.48
2023-03-24T19:40:45.068Z,15.45
2023-03-24T19:43:12.115Z,15.40
2023-03-24T19:45:42.973Z,15.37
2023-03-24T19:48:10.902Z,15.37
2023-03-24T19:50:38.370Z,15.36
2023-03-24T19:53:05.609Z,15.35
2023-03-24T19:55:33.620Z,15.32
2023-03-24T19:58:00.635Z,15.32
2023-03-24T20:00:28.343Z,15.31
2023-03-24T20:02:55.411Z,15.31
2023-03-24T20:05:22.718Z,15.30
2023-03-24T20:07:49.735Z,15.29
2023-03-24T20:10:17.136Z,15.32
2023-03-24T20:12:44.066Z,15.34
2023-03-24T20:15:11.627Z,15.34
2023-03-24T20:17:40.647Z,15.36
2023-03-24T20:20:08.732Z,15.38
2023-03-24T20:22:36.342Z,15.47
2023-03-24T20:25:04.958Z,15.49
2023-03-24T20:27:32.170Z,15.50
2023-03-24T20:29:59.399Z,15.51
2023-03-24T20:32:26.357Z,15.50
2023-03-24T20:34:54.420Z,15.50
2023-03-24T20:37:21.318Z,15.47
2023-03-24T20:39:48.561Z,15.48
2023-03-24T20:42:17.546Z,15.50
2023-03-24T20:44:44.537Z,15.49
2023-03-24T20:47:11.557Z,15.56
2023-03-24T20:49:38.688Z,15.56
2023-03-24T20:52:05.706Z,15.53
2023-03-24T20:54:32.890Z,15.57
2023-03-24T20:56:59.787Z,15.60
2023-03-24T20:59:27.044Z,15.62
2023-03-24T21:01:53.954Z,15.57
2023-03-24T21:04:21.225Z,15.56
2023-03-24T21:06:48.072Z,15.58
2023-03-24T21:09:15.520Z,15.56
2023-03-24T21:11:42.424Z,15.58
2023-03-24T21:14:09.627Z,15.63
2023-03-24T21:16:37.516Z,15.61
2023-03-24T21:19:05.105Z,15.59
2023-03-24T21:21:32.411Z,15.53
2023-03-24T21:24:00.577Z,15.50
2023-03-24T21:26:27.980Z,15.47
2023-03-24T21:28:57.967Z,15.44
2023-03-24T21:31:27.526Z,15.41
2023-03-24T21:33:56.507Z,15.38
2023-03-24T21:36:25.045Z,15.34
2023-03-24T21:38:54.055Z,15.32
2023-03-24T21:41:22.377Z,15.31
2023-03-24T21:43:54.336Z,15.32
2023-03-24T21:46:22.353Z,15.34
2023-03-24T21:48:51.943Z,15.32
2023-03-24T21:51:20.226Z,15.23
2023-03-24T21:53:47.881Z,15.23
2023-03-24T21:56:14.842Z,15.18
2023-03-24T21:58:42.281Z,15.16
2023-03-24T22:01:09.814Z,15.14
2023-03-24T22:03:37.317Z,15.11
2023-03-24T22:06:06.094Z,15.07
2023-03-24T22:08:33.292Z,15.02
2023-03-24T22:11:04.178Z,14.96
2023-03-24T22:13:33.471Z,14.89
2023-03-24T22:16:03.103Z,14.85
2023-03-24T22:18:33.036Z,14.78
2023-03-24T22:21:08.384Z,14.68
2023-03-24T22:23:39.706Z,14.62
2023-03-24T22:26:10.468Z,14.55
2023-03-24T22:28:38.358Z,14.52
2023-03-24T22:31:11.572Z,14.48
2023-03-24T22:33:38.877Z,14.44
2023-03-24T22:36:06.886Z,14.42
2023-03-24T22:38:34.620Z,14.43
2023-03-24T22:41:07.338Z,14.40
2023-03-24T22:43:35.749Z,14.42
2023-03-24T22:46:03.635Z,14.43
2023-03-24T22:48:31.428Z,14.40
2023-03-24T22:50:58.305Z,14.39
2023-03-24T22:53:25.660Z,14.42
2023-03-24T22:55:53.050Z,14.38
2023-03-24T22:58:20.539Z,14.37
2023-03-24T23:00:50.071Z,14.32
2023-03-24T23:03:17.451Z,14.22
2023-03-24T23:05:46.176Z,14.20
2023-03-24T23:08:15.577Z,14.12
2023-03-24T23:10:44.847Z,14.06
2023-03-24T23:13:13.378Z,13.97
2023-03-24T23:15:42.790Z,13.88
2023-03-24T23:18:10.876Z,13.78
2023-03-24T23:20:38.026Z,13.75
2023-03-24T23:23:06.827Z,13.71
2023-03-24T23:25:40.390Z,13.62
2023-03-24T23:28:07.252Z,13.57
2023-03-24T23:30:34.469Z,13.51
2023-03-24T23:33:03.634Z,13.48
2023-03-24T23:35:33.310Z,13.42
2023-03-24T23:38:00.112Z,13.30
2023-03-24T23:40:28.452Z,13.24
2023-03-24T23:42:55.334Z,13.16
2023-03-24T23:45:22.760Z,13.10
2023-03-24T23:47:51.879Z,13.08
2023-03-24T23:50:20.621Z,13.04
2023-03-24T23:52:48.061Z,13.03
2023-03-24T23:55:17.974Z,12.98
2023-03-24T23:57:46.885Z,12.97
